createdAt,value
2018-11-11T00:00:08.563Z,93.00
2018-11-11T00:01:08.525Z,93.00
2018-11-11T00:02:08.538Z,92.86
2018-11-11T00:03:08.520Z,92.90
2018-11-11T00:04:08.541Z,93.10
2018-11-11T00:05:08.517Z,93.31
2018-11-11T00:06:08.489Z,92.86
2018-11-11T00:07:08.458Z,93.16
2018-11-11T00:08:08.460Z,93.31
2018-11-11T00:09:08.472Z,93.10
2018-11-11T00:10:08.450Z,93.31
2018-11-11T00:11:08.434Z,93.21
2018-11-11T00:12:08.407Z,93.31
2018-11-11T00:13:08.401Z,93.31
2018-11-11T00:14:08.398Z,93.62
2018-11-11T00:15:08.362Z,93.41
2018-11-11T00:16:08.369Z,93.31
2018-11-11T00:17:08.358Z,93.62
2018-11-11T00:18:08.339Z,94.02
2018-11-11T00:19:08.327Z,94.02
2018-11-11T00:20:08.322Z,93.92
2018-11-11T00:21:08.351Z,94.12
2018-11-11T00:22:08.290Z,93.82
2018-11-11T00:23:08.268Z,94.12
2018-11-11T00:24:08.256Z,94.12
2018-11-11T00:25:08.254Z,94.12
2018-11-11T00:26:08.260Z,93.92
2018-11-11T00:27:08.219Z,94.43
2018-11-11T00:28:08.207Z,93.51
2018-11-11T00:29:08.234Z,94.33
2018-11-11T00:30:08.196Z,93.71
2018-11-11T00:31:08.200Z,93.71
2018-11-11T00:32:08.157Z,93.62
2018-11-11T00:33:08.143Z,93.51
2018-11-11T00:34:08.136Z,93.31
2018-11-11T00:35:08.129Z,93.51
2018-11-11T00:36:08.173Z,93.31
2018-11-11T00:37:08.139Z,93.21
2018-11-11T00:38:08.132Z,93.41
2018-11-11T00:39:08.088Z,93.10
2018-11-11T00:40:08.085Z,93.41
2018-11-11T00:41:08.091Z,93.21
2018-11-11T00:42:08.069Z,93.31
2018-11-11T00:43:08.058Z,93.31
2018-11-11T00:44:08.025Z,93.10
2018-11-11T00:45:08.033Z,93.31
2018-11-11T00:46:07.998Z,93.21
2018-11-11T00:47:08.005Z,92.90
2018-11-11T00:48:07.961Z,93.31
2018-11-11T00:49:07.978Z,93.41
2018-11-11T00:50:07.960Z,93.10
2018-11-11T00:51:07.954Z,93.25
2018-11-11T00:52:07.959Z,92.90
2018-11-11T00:53:07.911Z,93.10
2018-11-11T00:54:07.912Z,93.35
2018-11-11T00:55:07.882Z,93.10
2018-11-11T00:56:07.869Z,93.35
2018-11-11T00:57:07.906Z,92.69
2018-11-11T00:58:07.859Z,92.69
2018-11-11T00:59:08.022Z,93.00
2018-11-11T01:00:07.834Z,92.90
2018-11-11T01:01:07.883Z,92.84
2018-11-11T01:02:07.901Z,92.49
2018-11-11T01:03:07.792Z,92.33
2018-11-11T01:04:07.810Z,91.98
2018-11-11T01:05:07.775Z,92.54
2018-11-11T01:06:07.770Z,92.43
2018-11-11T01:07:07.772Z,93.15
2018-11-11T01:08:07.724Z,92.84
2018-11-11T01:09:07.714Z,93.25
2018-11-11T01:10:07.719Z,92.78
2018-11-11T01:11:07.706Z,92.68
2018-11-11T01:12:07.676Z,92.78
2018-11-11T01:13:07.753Z,92.68
2018-11-11T01:14:07.652Z,92.33
2018-11-11T01:15:07.679Z,92.68
2018-11-11T01:16:07.633Z,92.07
2018-11-11T01:17:07.626Z,93.09
2018-11-11T01:18:07.647Z,92.27
2018-11-11T01:19:07.593Z,91.76
2018-11-11T01:20:07.581Z,92.17
2018-11-11T01:21:07.566Z,92.27
2018-11-11T01:22:07.568Z,91.86
2018-11-11T01:23:07.566Z,91.91
2018-11-11T01:24:07.529Z,92.21
2018-11-11T01:25:07.540Z,92.01
2018-11-11T01:26:07.545Z,92.21
2018-11-11T01:27:07.495Z,92.32
2018-11-11T01:28:07.509Z,91.91
2018-11-11T01:29:07.467Z,92.01
2018-11-11T01:30:07.460Z,91.66
2018-11-11T01:31:07.458Z,91.80
2018-11-11T01:32:07.431Z,92.01
2018-11-11T01:33:07.434Z,93.03
2018-11-11T01:34:07.457Z,92.32
2018-11-11T01:35:07.400Z,92.87
2018-11-11T01:36:07.388Z,92.42
2018-11-11T01:37:07.372Z,92.62
2018-11-11T01:38:07.371Z,93.07
2018-11-11T01:39:07.368Z,93.07
2018-11-11T01:40:07.354Z,92.83
2018-11-11T01:41:07.323Z,93.07
2018-11-11T01:42:07.326Z,93.28
2018-11-11T01:43:07.305Z,93.18
2018-11-11T01:44:07.325Z,92.56
2018-11-11T01:45:07.282Z,92.66
2018-11-11T01:46:07.268Z,91.60
2018-11-11T01:47:07.258Z,92.32
2018-11-11T01:48:07.241Z,93.03
2018-11-11T01:49:07.253Z,92.56
2018-11-11T01:50:07.217Z,92.72
2018-11-11T01:51:07.206Z,92.46
2018-11-11T01:52:07.200Z,92.52
2018-11-11T01:53:07.179Z,91.91
2018-11-11T01:54:07.328Z,91.70
2018-11-11T01:55:07.165Z,91.29
2018-11-11T01:56:07.150Z,91.70
2018-11-11T01:57:07.139Z,92.11
2018-11-11T01:58:07.128Z,92.11
2018-11-11T01:59:07.107Z,91.70
2018-11-11T02:00:07.129Z,92.01
2018-11-11T02:01:07.085Z,92.01
2018-11-11T02:02:07.076Z,91.80
2018-11-11T02:03:07.056Z,91.29
2018-11-11T02:04:07.047Z,91.80
2018-11-11T02:05:07.078Z,92.01
2018-11-11T02:06:07.030Z,91.91
2018-11-11T02:07:07.018Z,90.99
2018-11-11T02:08:07.001Z,91.46
2018-11-11T02:09:06.985Z,91.50
2018-11-11T02:10:06.993Z,91.39
2018-11-11T02:11:06.967Z,90.99
2018-11-11T02:12:06.949Z,90.84
2018-11-11T02:13:06.944Z,91.39
2018-11-11T02:14:06.942Z,90.78
2018-11-11T02:15:06.940Z,90.68
2018-11-11T02:16:06.908Z,90.88
2018-11-11T02:17:06.894Z,90.58
2018-11-11T02:18:06.888Z,90.06
2018-11-11T02:19:06.878Z,90.78
2018-11-11T02:20:06.877Z,90.27
2018-11-11T02:21:06.892Z,90.06
2018-11-11T02:22:06.836Z,90.68
2018-11-11T02:23:06.819Z,90.78
2018-11-11T02:24:06.826Z,90.06
2018-11-11T02:25:06.799Z,90.17
2018-11-11T02:26:06.801Z,90.37
2018-11-11T02:27:06.781Z,90.68
2018-11-11T02:28:06.760Z,90.68
2018-11-11T02:29:06.773Z,90.99
2018-11-11T02:30:06.752Z,91.29
2018-11-11T02:31:06.752Z,90.92
2018-11-11T02:32:06.729Z,90.62
2018-11-11T02:33:06.701Z,91.13
2018-11-11T02:34:06.712Z,91.44
2018-11-11T02:35:06.674Z,91.03
2018-11-11T02:36:06.690Z,91.64
2018-11-11T02:37:06.683Z,92.10
2018-11-11T02:38:06.642Z,91.95
2018-11-11T02:39:06.632Z,91.85
2018-11-11T02:40:06.615Z,91.69
2018-11-11T02:41:06.618Z,91.44
2018-11-11T02:42:06.593Z,91.85
2018-11-11T02:43:06.583Z,91.23
2018-11-11T02:44:06.578Z,90.82
2018-11-11T02:45:06.559Z,91.69
2018-11-11T02:46:06.558Z,91.74
2018-11-11T02:47:06.555Z,91.58
2018-11-11T02:48:06.530Z,91.58
2018-11-11T02:49:06.512Z,91.07
2018-11-11T02:50:06.507Z,91.48
2018-11-11T02:51:06.516Z,91.99
2018-11-11T02:52:06.468Z,91.48
2018-11-11T02:53:06.468Z,91.99
2018-11-11T02:54:06.483Z,91.99
2018-11-11T02:55:06.445Z,92.10
2018-11-11T02:56:06.421Z,91.99
2018-11-11T02:57:06.426Z,92.24
2018-11-11T02:58:06.397Z,91.69
2018-11-11T02:59:06.418Z,92.24
2018-11-11T03:00:06.381Z,92.03
2018-11-11T03:01:06.372Z,92.14
2018-11-11T03:02:06.393Z,92.24
2018-11-11T03:03:06.338Z,91.83
2018-11-11T03:04:06.400Z,91.83
2018-11-11T03:05:06.314Z,92.03
2018-11-11T03:06:06.306Z,92.03
2018-11-11T03:07:06.288Z,91.93
2018-11-11T03:08:06.292Z,92.14
2018-11-11T03:09:06.293Z,91.73
2018-11-11T03:10:06.269Z,91.93
2018-11-11T03:11:06.240Z,92.03
2018-11-11T03:12:06.225Z,91.52
2018-11-11T03:13:06.234Z,91.83
2018-11-11T03:14:06.223Z,91.83
2018-11-11T03:15:06.192Z,91.22
2018-11-11T03:16:06.189Z,91.42
2018-11-11T03:17:06.191Z,91.52
2018-11-11T03:18:06.168Z,91.11
2018-11-11T03:19:06.190Z,91.63
2018-11-11T03:20:06.139Z,91.73
2018-11-11T03:21:06.142Z,91.63
2018-11-11T03:22:06.115Z,91.83
2018-11-11T03:23:06.109Z,91.63
2018-11-11T03:24:06.137Z,91.22
2018-11-11T03:25:06.077Z,91.93
2018-11-11T03:26:06.065Z,92.24
2018-11-11T03:27:06.055Z,91.22
2018-11-11T03:28:06.046Z,91.52
2018-11-11T03:29:06.061Z,91.31
2018-11-11T03:30:06.020Z,91.07
2018-11-11T03:31:06.007Z,90.60
2018-11-11T03:32:06.050Z,90.09
2018-11-11T03:33:05.996Z,89.64
2018-11-11T03:34:06.006Z,89.33
2018-11-11T03:35:05.981Z,90.56
2018-11-11T03:36:05.952Z,89.84
2018-11-11T03:37:05.938Z,88.82
2018-11-11T03:38:05.928Z,89.03
2018-11-11T03:39:05.913Z,88.68
2018-11-11T03:40:05.954Z,88.26
2018-11-11T03:41:05.893Z,88.57
2018-11-11T03:42:05.928Z,88.37
2018-11-11T03:43:05.893Z,88.26
2018-11-11T03:44:05.857Z,87.96
2018-11-11T03:45:05.874Z,87.76
2018-11-11T03:46:05.835Z,88.57
2018-11-11T03:47:05.832Z,86.73
2018-11-11T03:48:05.814Z,88.68
2018-11-11T03:49:06.363Z,88.57
2018-11-11T03:50:05.819Z,88.37
2018-11-11T03:51:05.780Z,88.37
2018-11-11T03:52:05.774Z,88.57
2018-11-11T03:53:05.756Z,88.06
2018-11-11T03:54:05.746Z,88.47
2018-11-11T03:55:05.834Z,87.04
2018-11-11T03:56:05.726Z,87.04
2018-11-11T03:57:05.719Z,88.43
2018-11-11T03:58:05.697Z,87.45
2018-11-11T03:59:05.695Z,87.30
2018-11-11T04:00:05.703Z,87.04
2018-11-11T04:01:05.673Z,86.53
2018-11-11T04:02:05.677Z,87.04
2018-11-11T04:03:05.642Z,87.20
2018-11-11T04:04:05.620Z,86.53
2018-11-11T04:05:05.669Z,86.79
2018-11-11T04:06:05.606Z,86.18
2018-11-11T04:07:05.609Z,86.59
2018-11-11T04:08:05.615Z,86.18
2018-11-11T04:09:05.579Z,87.10
2018-11-11T04:10:05.598Z,86.59
2018-11-11T04:11:05.541Z,86.63
2018-11-11T04:12:05.546Z,86.38
2018-11-11T04:13:05.525Z,87.55
2018-11-11T04:14:05.511Z,87.35
2018-11-11T04:15:05.501Z,86.83
2018-11-11T04:16:05.504Z,85.91
2018-11-11T04:17:05.469Z,86.94
2018-11-11T04:18:05.460Z,85.50
2018-11-11T04:19:05.445Z,86.12
2018-11-11T04:20:05.429Z,86.83
2018-11-11T04:21:05.448Z,85.57
2018-11-11T04:22:05.444Z,85.71
2018-11-11T04:23:05.434Z,85.77
2018-11-11T04:24:05.393Z,85.88
2018-11-11T04:25:05.374Z,87.14
2018-11-11T04:26:05.417Z,86.02
2018-11-11T04:27:05.357Z,85.67
2018-11-11T04:28:05.341Z,85.47
2018-11-11T04:29:05.330Z,85.20
2018-11-11T04:30:05.329Z,85.30
2018-11-11T04:31:05.443Z,85.26
2018-11-11T04:32:05.300Z,84.85
2018-11-11T04:33:05.288Z,85.61
2018-11-11T04:34:05.269Z,85.88
2018-11-11T04:35:05.279Z,86.02
2018-11-11T04:36:05.239Z,85.10
2018-11-11T04:37:05.243Z,85.91
2018-11-11T04:38:05.218Z,85.71
2018-11-11T04:39:05.262Z,85.71
2018-11-11T04:40:05.207Z,85.30
2018-11-11T04:41:05.207Z,85.20
2018-11-11T04:42:05.189Z,86.02
2018-11-11T04:43:05.167Z,84.99
2018-11-11T04:44:05.143Z,85.30
2018-11-11T04:45:05.136Z,85.20
2018-11-11T04:46:05.141Z,85.81
2018-11-11T04:47:05.134Z,85.71
2018-11-11T04:48:05.090Z,85.61
2018-11-11T04:49:05.083Z,85.30
2018-11-11T04:50:05.069Z,85.81
2018-11-11T04:51:05.069Z,85.91
2018-11-11T04:52:05.076Z,85.50
2018-11-11T04:53:05.040Z,85.91
2018-11-11T04:54:05.019Z,85.30
2018-11-11T04:55:05.017Z,84.99
2018-11-11T04:56:05.000Z,84.99
2018-11-11T04:57:05.050Z,85.30
2018-11-11T04:58:04.970Z,85.40
2018-11-11T04:59:04.963Z,85.81
2018-11-11T05:00:04.973Z,85.71
2018-11-11T05:01:04.934Z,85.81
2018-11-11T05:02:04.944Z,84.99
2018-11-11T05:03:04.909Z,84.58
2018-11-11T05:04:04.898Z,84.75
2018-11-11T05:05:04.898Z,83.93
2018-11-11T05:06:04.882Z,85.88
2018-11-11T05:07:04.888Z,84.34
2018-11-11T05:08:04.894Z,83.93
2018-11-11T05:09:04.839Z,84.14
2018-11-11T05:10:04.838Z,83.73
2018-11-11T05:11:04.958Z,83.83
2018-11-11T05:12:04.812Z,83.22
2018-11-11T05:13:04.814Z,83.83
2018-11-11T05:14:04.785Z,83.89
2018-11-11T05:15:04.771Z,83.52
2018-11-11T05:16:04.755Z,83.93
2018-11-11T05:17:04.745Z,83.52
2018-11-11T05:18:04.756Z,83.93
2018-11-11T05:19:04.753Z,83.18
2018-11-11T05:20:04.706Z,83.48
2018-11-11T05:21:04.870Z,83.59
2018-11-11T05:22:04.763Z,83.79
2018-11-11T05:23:04.783Z,84.30
2018-11-11T05:24:04.669Z,83.83
2018-11-11T05:25:04.642Z,83.18
2018-11-11T05:26:04.632Z,83.32
2018-11-11T05:27:04.623Z,83.11
2018-11-11T05:28:04.628Z,83.48
2018-11-11T05:29:04.600Z,83.59
2018-11-11T05:30:04.584Z,82.56
2018-11-11T05:31:04.572Z,83.07
2018-11-11T05:32:04.585Z,82.56
2018-11-11T05:33:04.588Z,83.18
2018-11-11T05:34:04.577Z,83.07
2018-11-11T05:35:04.529Z,83.07
2018-11-11T05:36:04.512Z,82.87
2018-11-11T05:37:04.525Z,84.20
2018-11-11T05:38:04.503Z,82.56
2018-11-11T05:39:04.524Z,82.05
2018-11-11T05:40:04.508Z,83.07
2018-11-11T05:41:04.468Z,82.87
2018-11-11T05:42:04.446Z,82.77
2018-11-11T05:43:04.432Z,83.18
2018-11-11T05:44:04.435Z,83.69
2018-11-11T05:45:04.423Z,83.18
2018-11-11T05:46:04.396Z,83.18
2018-11-11T05:47:04.376Z,82.87
2018-11-11T05:48:04.389Z,83.28
2018-11-11T05:49:04.397Z,82.26
2018-11-11T05:50:04.367Z,82.05
2018-11-11T05:51:04.343Z,82.77
2018-11-11T05:52:04.339Z,82.26
2018-11-11T05:53:04.331Z,81.95
2018-11-11T05:54:04.301Z,82.26
2018-11-11T05:55:04.305Z,82.56
2018-11-11T05:56:04.284Z,83.48
2018-11-11T05:57:04.261Z,82.67
2018-11-11T05:58:04.253Z,82.77
2018-11-11T05:59:04.243Z,83.38
2018-11-11T06:00:04.364Z,83.18
2018-11-11T06:01:04.217Z,83.18
2018-11-11T06:02:04.199Z,82.56
2018-11-11T06:03:04.189Z,82.87
2018-11-11T06:04:04.177Z,82.46
2018-11-11T06:05:04.189Z,81.95
2018-11-11T06:06:04.175Z,82.15
2018-11-11T06:08:05.279Z,82.15
2018-11-11T06:09:04.115Z,82.05
2018-11-11T06:10:04.105Z,81.85
2018-11-11T06:11:04.115Z,82.09
2018-11-11T06:12:04.076Z,82.46
2018-11-11T06:13:04.070Z,82.26
2018-11-11T06:14:04.057Z,83.22
2018-11-11T06:15:04.040Z,82.20
2018-11-11T06:16:04.045Z,81.79
2018-11-11T06:17:04.042Z,82.29
2018-11-11T06:18:04.020Z,82.50
2018-11-11T06:19:03.995Z,81.58
2018-11-11T06:20:03.992Z,81.34
2018-11-11T06:21:03.989Z,82.20
2018-11-11T06:22:03.955Z,82.20
2018-11-11T06:23:03.966Z,82.36
2018-11-11T06:24:03.932Z,82.50
2018-11-11T06:25:03.921Z,82.50
2018-11-11T06:26:03.931Z,82.29
2018-11-11T06:27:03.994Z,82.20
2018-11-11T06:28:03.885Z,82.20
2018-11-11T06:29:03.874Z,82.20
2018-11-11T06:30:03.862Z,82.40
2018-11-11T06:31:03.893Z,83.01
2018-11-11T06:32:03.858Z,82.09
2018-11-11T06:33:03.823Z,82.20
2018-11-11T06:34:03.869Z,82.50
2018-11-11T06:35:03.819Z,83.42
2018-11-11T06:36:03.788Z,83.22
2018-11-11T06:37:03.814Z,82.91
2018-11-11T06:38:03.786Z,83.42
2018-11-11T06:39:03.749Z,83.11
2018-11-11T06:40:03.742Z,82.91
2018-11-11T06:41:03.726Z,83.52
2018-11-11T06:42:03.833Z,82.81
2018-11-11T06:43:03.702Z,82.60
2018-11-11T06:44:03.724Z,82.29
2018-11-11T06:45:03.681Z,83.01
2018-11-11T06:46:03.679Z,82.81
2018-11-11T06:47:03.679Z,82.81
2018-11-11T06:48:03.754Z,82.60
2018-11-11T06:49:03.648Z,82.81
2018-11-11T06:50:03.619Z,82.81
2018-11-11T06:51:03.605Z,83.22
2018-11-11T06:52:03.619Z,82.60
2018-11-11T06:53:03.601Z,81.99
2018-11-11T06:54:03.571Z,81.79
2018-11-11T06:55:03.578Z,82.20
2018-11-11T06:56:03.552Z,82.70
2018-11-11T06:57:03.545Z,82.40
2018-11-11T06:58:03.562Z,82.40
2018-11-11T06:59:03.511Z,82.81
2018-11-11T07:00:03.505Z,82.29
2018-11-11T07:01:03.568Z,82.36
2018-11-11T07:02:03.477Z,82.15
2018-11-11T07:03:03.484Z,81.95
2018-11-11T07:04:03.451Z,81.95
2018-11-11T07:05:03.436Z,82.36
2018-11-11T07:06:03.427Z,81.74
2018-11-11T07:07:03.414Z,82.36
2018-11-11T07:08:03.433Z,82.15
2018-11-11T07:09:03.393Z,82.15
2018-11-11T07:10:03.377Z,81.74
2018-11-11T07:11:03.371Z,82.67
2018-11-11T07:12:03.354Z,83.28
2018-11-11T07:13:03.370Z,82.87
2018-11-11T07:14:03.488Z,82.56
2018-11-11T07:15:03.315Z,82.67
2018-11-11T07:16:03.318Z,82.56
2018-11-11T07:17:03.317Z,83.48
2018-11-11T07:18:03.303Z,83.18
2018-11-11T07:19:03.285Z,83.48
2018-11-11T07:20:03.263Z,82.67
2018-11-11T07:21:03.287Z,82.97
2018-11-11T07:22:03.237Z,82.87
2018-11-11T07:23:03.247Z,83.07
2018-11-11T07:24:03.249Z,82.67
2018-11-11T07:25:03.276Z,82.87
2018-11-11T07:26:03.182Z,82.67
2018-11-11T07:27:03.176Z,82.77
2018-11-11T07:28:03.172Z,83.07
2018-11-11T07:29:03.174Z,82.67
2018-11-11T07:30:03.146Z,83.07
2018-11-11T07:31:03.127Z,83.48
2018-11-11T07:32:03.115Z,83.18
2018-11-11T07:33:03.105Z,83.38
2018-11-11T07:34:03.117Z,83.48
2018-11-11T07:35:03.125Z,84.50
2018-11-11T07:36:03.108Z,84.20
2018-11-11T07:37:03.055Z,84.61
2018-11-11T07:38:03.040Z,84.09
2018-11-11T07:39:03.050Z,84.20
2018-11-11T07:40:03.018Z,83.89
2018-11-11T07:41:03.024Z,84.50
2018-11-11T07:42:03.002Z,84.30
2018-11-11T07:43:02.982Z,84.71
2018-11-11T07:44:02.985Z,84.50
2018-11-11T07:45:02.989Z,84.81
2018-11-11T07:46:02.946Z,84.71
2018-11-11T07:47:02.936Z,84.71
2018-11-11T07:48:03.047Z,84.71
2018-11-11T07:49:02.912Z,85.22
2018-11-11T07:50:02.926Z,85.69
2018-11-11T07:51:02.890Z,84.77
2018-11-11T07:52:02.949Z,84.16
2018-11-11T07:53:02.897Z,83.75
2018-11-11T07:54:02.915Z,83.54
2018-11-11T07:55:02.938Z,83.65
2018-11-11T07:56:02.835Z,84.16
2018-11-11T07:57:02.811Z,84.67
2018-11-11T07:58:02.805Z,84.26
2018-11-11T07:59:02.784Z,83.75
2018-11-11T08:00:02.797Z,83.95
2018-11-11T08:01:02.763Z,84.26
2018-11-11T08:02:02.817Z,83.75
2018-11-11T08:03:02.745Z,84.26
2018-11-11T08:04:02.733Z,84.12
2018-11-11T08:05:02.743Z,83.51
2018-11-11T08:06:02.732Z,83.00
2018-11-11T08:07:02.698Z,82.69
2018-11-11T08:08:02.709Z,83.00
2018-11-11T08:09:02.684Z,82.89
2018-11-11T08:10:02.660Z,82.89
2018-11-11T08:11:02.703Z,82.39
2018-11-11T08:12:02.636Z,83.00
2018-11-11T08:13:02.625Z,82.49
2018-11-11T08:14:02.615Z,82.18
2018-11-11T08:15:02.619Z,82.59
2018-11-11T08:16:02.583Z,82.59
2018-11-11T08:17:02.593Z,81.87
2018-11-11T08:18:02.562Z,82.18
2018-11-11T08:19:02.559Z,82.08
2018-11-11T08:20:02.552Z,81.57
2018-11-11T08:21:02.545Z,82.59
2018-11-11T08:22:02.515Z,82.49
2018-11-11T08:23:02.506Z,82.24
2018-11-11T08:24:02.487Z,82.55
2018-11-11T08:25:02.516Z,82.65
2018-11-11T08:26:02.492Z,81.73
2018-11-11T08:27:02.462Z,81.02
2018-11-11T08:28:02.443Z,81.32
2018-11-11T08:29:02.429Z,81.32
2018-11-11T08:30:02.421Z,80.47
2018-11-11T08:31:02.436Z,80.07
2018-11-11T08:32:02.611Z,79.55
2018-11-11T08:33:02.383Z,79.14
2018-11-11T08:34:02.378Z,79.35
2018-11-11T08:35:02.363Z,78.91
2018-11-11T08:36:02.362Z,77.51
2018-11-11T08:37:02.363Z,78.94
2018-11-11T08:38:02.320Z,78.30
2018-11-11T08:39:02.316Z,78.39
2018-11-11T08:40:02.322Z,78.60
2018-11-11T08:41:02.291Z,77.37
2018-11-11T08:42:02.338Z,76.97
2018-11-11T08:43:02.270Z,77.07
2018-11-11T08:44:02.259Z,77.07
2018-11-11T08:45:02.257Z,78.09
2018-11-11T08:46:02.232Z,77.98
2018-11-11T08:47:02.249Z,77.37
2018-11-11T08:48:02.242Z,77.37
2018-11-11T08:49:02.205Z,76.97
2018-11-11T08:50:02.196Z,76.83
2018-11-11T08:51:02.196Z,76.22
2018-11-11T08:52:02.311Z,77.14
2018-11-11T08:53:02.158Z,76.83
2018-11-11T08:54:02.149Z,76.01
2018-11-11T08:55:02.128Z,76.42
2018-11-11T08:56:02.127Z,75.60
2018-11-11T08:57:02.124Z,75.98
2018-11-11T08:58:02.152Z,76.12
2018-11-11T08:59:02.077Z,77.24
2018-11-11T09:00:02.076Z,76.32
2018-11-11T09:01:02.066Z,76.32
2018-11-11T09:02:02.094Z,75.92
2018-11-11T09:03:02.060Z,76.22
2018-11-11T09:04:02.024Z,76.12
2018-11-11T09:05:02.142Z,76.42
2018-11-11T09:06:02.001Z,76.62
2018-11-11T09:07:02.012Z,75.71
2018-11-11T09:08:01.981Z,76.08
2018-11-11T09:09:01.981Z,75.40
2018-11-11T09:10:01.962Z,75.78
2018-11-11T09:11:01.956Z,76.18
2018-11-11T09:12:01.971Z,75.27
2018-11-11T09:13:01.930Z,75.27
2018-11-11T09:14:01.934Z,74.93
2018-11-11T09:15:01.908Z,75.23
2018-11-11T09:16:01.884Z,74.21
2018-11-11T09:17:01.883Z,74.11
2018-11-11T09:18:01.893Z,73.60
2018-11-11T09:19:01.856Z,73.60
2018-11-11T09:20:01.844Z,73.71
2018-11-11T09:21:01.839Z,73.71
2018-11-11T09:22:01.855Z,74.55
2018-11-11T09:23:01.809Z,74.25
2018-11-11T09:24:01.834Z,74.76
2018-11-11T09:25:01.788Z,74.65
2018-11-11T09:26:01.772Z,74.04
2018-11-11T09:27:01.767Z,74.55
2018-11-11T09:28:01.755Z,74.72
2018-11-11T09:29:01.787Z,74.45
2018-11-11T09:30:01.752Z,74.55
2018-11-11T09:31:01.728Z,74.45
2018-11-11T09:32:01.710Z,75.16
2018-11-11T09:33:01.703Z,74.96
2018-11-11T09:34:01.733Z,74.35
2018-11-11T09:35:01.741Z,74.45
2018-11-11T09:36:01.670Z,74.96
2018-11-11T09:37:01.648Z,74.86
2018-11-11T09:38:01.640Z,74.65
2018-11-11T09:39:01.708Z,76.08
2018-11-11T09:40:01.623Z,74.96
2018-11-11T09:41:01.609Z,75.16
2018-11-11T09:42:01.599Z,74.25
2018-11-11T09:43:01.603Z,74.86
2018-11-11T09:44:01.590Z,74.76
2018-11-11T09:45:01.588Z,74.55
2018-11-11T09:46:01.549Z,74.15
2018-11-11T09:47:01.538Z,74.15
2018-11-11T09:48:01.627Z,74.15
2018-11-11T09:49:01.522Z,74.65
2018-11-11T09:50:01.526Z,75.47
2018-11-11T09:51:01.491Z,74.45
2018-11-11T09:52:01.482Z,74.45
2018-11-11T09:53:01.477Z,73.74
2018-11-11T09:54:01.576Z,74.25
2018-11-11T09:55:01.542Z,73.84
2018-11-11T09:56:01.454Z,74.25
2018-11-11T09:57:01.429Z,74.45
2018-11-11T09:58:01.412Z,75.06
2018-11-11T09:59:01.413Z,75.27
2018-11-11T10:00:01.403Z,75.37
2018-11-11T10:01:01.481Z,74.15
2018-11-11T10:02:01.389Z,74.65
2018-11-11T10:03:01.372Z,74.65
2018-11-11T10:04:01.375Z,74.76
2018-11-11T10:05:01.332Z,74.65
2018-11-11T10:06:01.347Z,74.82
2018-11-11T10:07:01.393Z,74.93
2018-11-11T10:08:01.301Z,74.72
2018-11-11T10:09:01.304Z,74.21
2018-11-11T10:10:01.301Z,73.91
2018-11-11T10:12:01.322Z,75.06
2018-11-11T10:13:01.255Z,75.06
2018-11-11T10:14:01.233Z,74.76
2018-11-11T10:15:01.221Z,74.76
2018-11-11T10:16:01.230Z,75.06
2018-11-11T10:17:01.200Z,75.37
2018-11-11T10:18:01.189Z,74.86
2018-11-11T10:19:01.192Z,74.45
2018-11-11T10:20:01.225Z,74.65
2018-11-11T10:21:01.346Z,74.11
2018-11-11T10:22:01.149Z,74.41
2018-11-11T10:23:01.131Z,73.50
2018-11-11T10:24:01.129Z,73.36
2018-11-11T10:25:01.123Z,73.47
2018-11-11T10:26:01.146Z,72.75
2018-11-11T10:27:01.095Z,72.86
2018-11-11T10:28:01.094Z,72.45
2018-11-11T10:29:01.143Z,73.10
2018-11-11T10:30:01.061Z,73.30
2018-11-11T10:31:01.042Z,74.11
2018-11-11T10:32:01.040Z,73.87
2018-11-11T10:33:01.074Z,73.50
2018-11-11T10:34:01.035Z,72.96
2018-11-11T10:35:01.011Z,72.55
2018-11-11T10:36:00.996Z,72.34
2018-11-11T10:37:00.986Z,72.65
2018-11-11T10:38:00.966Z,72.31
2018-11-11T10:39:01.031Z,72.31
2018-11-11T10:40:00.953Z,71.50
2018-11-11T10:41:00.943Z,72.38
2018-11-11T10:42:00.924Z,71.16
2018-11-11T10:43:00.940Z,71.36
2018-11-11T10:44:00.922Z,71.36
2018-11-11T10:45:00.896Z,71.06
2018-11-11T10:46:00.890Z,69.94
2018-11-11T10:47:00.881Z,69.84
2018-11-11T10:48:00.886Z,69.23
2018-11-11T10:49:00.868Z,70.04
2018-11-11T10:50:00.844Z,70.01
2018-11-11T10:51:00.826Z,69.33
2018-11-11T10:52:00.827Z,71.26
2018-11-11T10:53:00.829Z,69.20
2018-11-11T10:54:00.822Z,69.30
2018-11-11T10:55:00.780Z,69.50
2018-11-11T10:56:00.764Z,69.50
2018-11-11T10:57:00.761Z,68.69
2018-11-11T10:58:00.792Z,68.69
2018-11-11T10:59:00.754Z,68.69
2018-11-11T11:00:00.751Z,68.08
2018-11-11T11:01:00.715Z,68.38
2018-11-11T11:02:00.697Z,69.30
2018-11-11T11:03:00.806Z,68.59
2018-11-11T11:05:01.786Z,69.81
2018-11-11T11:06:00.821Z,71.97
2018-11-11T11:07:00.650Z,69.33
2018-11-11T11:08:00.654Z,70.35
2018-11-11T11:09:00.636Z,69.13
2018-11-11T11:10:00.640Z,69.33
2018-11-11T11:11:00.596Z,71.16
2018-11-11T11:12:00.591Z,69.77
2018-11-11T11:13:00.573Z,71.60
2018-11-11T11:14:00.694Z,71.09
2018-11-11T11:15:00.581Z,69.57
2018-11-11T11:16:00.557Z,69.64
2018-11-11T11:17:00.530Z,70.48
2018-11-11T11:18:00.529Z,69.46
2018-11-11T11:19:00.620Z,71.19
2018-11-11T11:20:00.499Z,70.38
2018-11-11T11:21:00.499Z,70.48
2018-11-11T11:22:00.503Z,70.07
2018-11-11T11:23:00.522Z,69.26
2018-11-11T11:24:00.472Z,69.26
2018-11-11T11:25:00.484Z,68.55
2018-11-11T11:26:00.493Z,68.85
2018-11-11T11:27:00.437Z,69.06
2018-11-11T11:28:00.482Z,69.64
2018-11-11T11:29:00.398Z,69.33
2018-11-11T11:30:00.412Z,69.43
2018-11-11T11:31:00.400Z,68.72
2018-11-11T11:32:00.396Z,68.44
2018-11-11T11:33:00.379Z,68.62
2018-11-11T11:34:00.346Z,69.02
2018-11-11T11:35:00.348Z,69.46
2018-11-11T11:36:00.317Z,68.32
2018-11-11T11:37:00.316Z,68.72
2018-11-11T11:38:00.350Z,68.82
2018-11-11T11:39:00.294Z,68.32
2018-11-11T11:40:00.300Z,68.52
2018-11-11T11:41:00.270Z,69.43
2018-11-11T11:42:00.248Z,67.60
2018-11-11T11:43:00.242Z,69.53
2018-11-11T11:44:00.302Z,69.23
2018-11-11T11:45:00.237Z,69.33
2018-11-11T11:46:00.207Z,69.53
2018-11-11T11:47:00.219Z,69.33
2018-11-11T11:48:00.182Z,68.72
2018-11-11T11:49:00.167Z,68.01
2018-11-11T11:50:00.238Z,68.11
2018-11-11T11:51:00.172Z,68.18
2018-11-11T11:52:00.189Z,67.77
2018-11-11T11:53:00.266Z,68.69
2018-11-11T11:54:00.116Z,67.16
2018-11-11T11:55:00.140Z,68.28
2018-11-11T11:56:00.107Z,67.13
2018-11-11T11:57:00.079Z,66.55
2018-11-11T11:58:00.172Z,67.64
2018-11-11T11:59:00.111Z,67.44
2018-11-11T12:00:00.063Z,67.24
2018-11-11T12:01:00.199Z,67.24
2018-11-11T12:02:00.082Z,67.54
2018-11-11T12:03:00.016Z,66.83
2018-11-11T12:04:00.007Z,67.44
2018-11-11T12:05:00.016Z,68.18
2018-11-11T12:05:59.987Z,68.89
2018-11-11T12:07:00.167Z,68.28
2018-11-11T12:07:59.958Z,68.99
2018-11-11T12:09:00.026Z,68.08
2018-11-11T12:09:59.939Z,68.49
2018-11-11T12:10:59.977Z,68.69
2018-11-11T12:11:59.924Z,67.36
2018-11-11T12:12:59.933Z,67.57
2018-11-11T12:13:59.915Z,69.20
2018-11-11T12:14:59.880Z,68.59
2018-11-11T12:15:59.863Z,67.27
2018-11-11T12:17:00.897Z,67.36
2018-11-11T12:17:59.902Z,67.57
2018-11-11T12:18:59.842Z,67.77
2018-11-11T12:19:59.819Z,68.49
2018-11-11T12:20:59.818Z,67.57
2018-11-11T12:21:59.840Z,67.16
2018-11-11T12:22:59.809Z,66.72
2018-11-11T12:23:59.812Z,67.44
2018-11-11T12:24:59.787Z,66.93
2018-11-11T12:25:59.858Z,66.93
2018-11-11T12:26:59.739Z,66.93
2018-11-11T12:27:59.732Z,68.25
2018-11-11T12:28:59.767Z,68.66
2018-11-11T12:29:59.721Z,69.67
2018-11-11T12:30:59.833Z,69.06
2018-11-11T12:31:59.684Z,69.47
2018-11-11T12:32:59.725Z,67.27
2018-11-11T12:33:59.670Z,68.59
2018-11-11T12:34:59.657Z,68.69
2018-11-11T12:35:59.642Z,68.79
2018-11-11T12:36:59.635Z,68.89
2018-11-11T12:37:59.617Z,68.38
2018-11-11T12:38:59.701Z,68.18
2018-11-11T12:39:59.728Z,68.28
2018-11-11T12:40:59.589Z,67.57
2018-11-11T12:41:59.576Z,68.28
2018-11-11T12:42:59.566Z,67.57
2018-11-11T12:43:59.571Z,67.36
2018-11-11T12:44:59.557Z,68.59
2018-11-11T12:45:59.540Z,68.69
2018-11-11T12:46:59.690Z,68.89
2018-11-11T12:47:59.516Z,68.49
2018-11-11T12:48:59.572Z,68.82
2018-11-11T12:49:59.497Z,68.99
2018-11-11T12:50:59.517Z,68.18
2018-11-11T12:51:59.465Z,68.52
2018-11-11T12:52:59.453Z,69.20
2018-11-11T12:53:59.467Z,69.50
2018-11-11T12:54:59.434Z,68.38